Time;durP1;ratioP1;P1;durP2;ratioP2;P2;SDS_P1;SDS_P2;PMS_P1;PMS_P2;Temp;Humidity;BMP_temperature;BMP_pressure;BME280_temperature;BME280_humidity;BME280_pressure;Samples;Min_cycle;Max_cycle;Signal;HPM_P1;HPM_P2
2021/12/07 00:01:49;;;;;;;2.80;1.65;;;;;;;19.26;53.15;96035.22;10455553;28;20056;-22
2021/12/07 00:06:49;;;;;;;5.45;1.90;;;;;;;19.09;52.84;95999.03;10456816;28;20025;-21
2021/12/07 00:11:50;;;;;;;3.03;1.92;;;;;;;19.27;52.88;96026.72;10459142;28;20029;-22
2021/12/07 00:16:53;;;;;;;3.28;2.10;;;;;;;19.33;52.81;96057.13;10460004;28;20025;-22
2021/12/07 00:21:54;;;;;;;3.15;1.73;;;;;;;19.32;52.86;96046.09;10458475;28;20035;-21
2021/12/07 00:26:54;;;;;;;3.80;1.50;;;;;;;19.31;52.85;96038.50;10465919;28;20511;-22
2021/12/07 00:32:17;;;;;;;3.35;1.52;;;;;;;19.31;52.72;96029.19;10456641;28;20404;-23
2021/12/07 00:37:17;;;;;;;3.85;1.77;;;;;;;19.30;52.82;96026.69;10454943;28;20021;-22
2021/12/07 00:42:18;;;;;;;2.57;1.40;;;;;;;19.30;52.93;96031.75;10464231;28;20029;-21
2021/12/07 00:47:18;;;;;;;3.15;1.45;;;;;;;19.30;52.75;96037.69;10471399;28;20511;-22
2021/12/07 00:52:19;;;;;;;5.57;1.80;;;;;;;19.27;52.83;96047.84;10470361;28;20094;-22
2021/12/07 00:57:21;;;;;;;4.50;1.48;;;;;;;19.24;52.88;96057.25;10460499;28;20025;-22
2021/12/07 01:02:21;;;;;;;1.77;1.52;;;;;;;19.20;52.78;96027.66;10456626;28;20459;-21
2021/12/07 01:28:43;;;;;;;2.88;1.42;;;;;;;19.27;53.03;96062.25;10470085;28;20118;-22
2021/12/07 01:59:54;;;;;;;2.88;1.25;;;;;;;19.24;52.90;96110.53;10467749;28;20074;-22
2021/12/07 02:04:56;;;;;;;3.17;1.50;;;;;;;19.31;53.03;96112.09;10463101;28;20033;-22
2021/12/07 02:10:07;;;;;;;3.15;1.58;;;;;;;19.23;52.92;96106.28;10457391;28;20036;-22
2021/12/07 02:15:12;;;;;;;2.92;1.50;;;;;;;19.30;52.98;96118.03;10464530;28;20108;-22
2021/12/07 02:20:14;;;;;;;1.63;1.20;;;;;;;19.25;52.95;96119.81;10471283;28;20119;-22
2021/12/07 02:25:17;;;;;;;4.93;1.63;;;;;;;19.30;52.88;96131.59;10470349;28;20183;-21
2021/12/07 02:30:20;;;;;;;4.28;1.08;;;;;;;19.28;52.90;96140.06;10464501;28;20020;-22
2021/12/07 02:35:25;;;;;;;2.42;1.15;;;;;;;19.28;52.99;96145.16;10458926;28;20087;-22
2021/12/07 02:40:29;;;;;;;1.35;0.98;;;;;;;19.30;52.74;96143.44;10461029;28;20033;-21
2021/12/07 02:45:30;;;;;;;2.00;1.27;;;;;;;19.31;52.73;96152.72;10461522;28;20500;-21
2021/12/07 02:50:33;;;;;;;5.07;1.58;;;;;;;19.30;52.76;96163.72;10465696;28;20123;-21
2021/12/07 02:55:35;;;;;;;1.52;1.00;;;;;;;19.25;52.76;96170.56;10458677;28;20021;-22
2021/12/07 03:00:45;;;;;;;3.95;1.05;;;;;;;19.24;52.90;96174.81;10467899;28;20032;-21
2021/12/07 03:27:07;;;;;;;1.75;0.93;;;;;;;19.24;52.86;96204.44;10463397;28;20083;-21
2021/12/07 03:32:09;;;;;;;1.30;1.00;;;;;;;19.30;52.83;96219.56;10464248;28;20131;-22
2021/12/07 03:37:10;;;;;;;2.42;0.98;;;;;;;19.28;52.94;96211.13;10461021;28;20035;-22
2021/12/07 03:42:10;;;;;;;1.10;0.88;;;;;;;19.24;52.85;96202.72;10456544;28;20496;-21
2021/12/07 03:47:11;;;;;;;1.88;0.95;;;;;;;19.30;52.61;96204.34;10460697;28;20818;-22
2021/12/07 03:52:11;;;;;;;3.08;1.75;;;;;;;19.30;52.81;96224.63;10461392;28;20096;-21
2021/12/07 03:57:12;;;;;;;1.92;0.90;;;;;;;19.29;52.79;96220.44;10456537;28;20108;-22
2021/12/07 04:02:13;;;;;;;1.70;1.00;;;;;;;19.31;52.79;96216.16;10462574;28;20381;-21
2021/12/07 04:07:13;;;;;;;4.00;1.73;;;;;;;19.22;52.66;96219.66;10460872;28;20617;-22
2021/12/07 04:12:14;;;;;;;2.70;1.52;;;;;;;19.28;52.74;96222.16;10455933;28;20519;-22
2021/12/07 04:17:14;;;;;;;1.00;0.80;;;;;;;19.18;52.67;96222.22;10456535;28;20033;-21
2021/12/07 04:22:15;;;;;;;1.50;0.82;;;;;;;19.22;52.77;96244.19;10461753;28;20079;-22
2021/12/07 04:27:15;;;;;;;3.28;0.95;;;;;;;19.28;52.70;96249.22;10462352;28;20619;-21
2021/12/07 04:32:16;;;;;;;1.83;1.10;;;;;;;19.24;52.63;96242.50;10458207;28;20627;-21
2021/12/07 04:37:16;;;;;;;1.87;1.30;;;;;;;19.24;52.75;96250.13;10456170;28;20279;-21
2021/12/07 04:42:17;;;;;;;1.60;0.80;;;;;;;19.19;52.74;96251.84;10460233;28;20025;-22
2021/12/07 04:47:25;;;;;;;2.30;1.02;;;;;;;19.25;52.79;96272.91;10473997;28;20033;-21
2021/12/07 04:57:47;;;;;;;3.03;0.90;;;;;;;19.25;52.88;96272.09;10465881;28;20514;-22
2021/12/07 05:02:54;;;;;;;2.83;1.08;;;;;;;19.26;52.85;96281.38;10475772;28;20035;-21
2021/12/07 05:07:58;;;;;;;1.20;0.75;;;;;;;19.26;52.84;96279.66;10471074;28;20040;-21
2021/12/07 05:39:11;;;;;;;3.75;1.08;;;;;;;19.33;51.34;96305.84;10462059;28;20035;-21
2021/12/07 05:44:11;;;;;;;4.80;0.90;;;;;;;19.22;49.10;96298.34;10471925;28;20052;-21
2021/12/07 05:49:11;;;;;;;4.25;0.98;;;;;;;19.14;45.74;96329.66;10482037;28;20088;-22
2021/12/07 05:54:12;;;;;;;1.80;0.80;;;;;;;19.17;44.90;96314.44;10461911;28;20025;-22
2021/12/07 05:59:13;;;;;;;1.25;0.80;;;;;;;19.18;44.47;96339.78;10468435;28;20294;-23
2021/12/07 06:04:13;;;;;;;2.00;0.80;;;;;;;19.29;44.84;96342.25;10480236;28;20045;-21
2021/12/07 06:09:14;;;;;;;14.07;4.15;;;;;;;19.21;47.13;96346.56;10465941;28;20047;-21
2021/12/07 06:14:18;;;;;;;2.90;1.33;;;;;;;19.26;48.25;96350.72;10459720;28;20029;-22
2021/12/07 06:19:18;;;;;;;6.53;1.40;;;;;;;19.27;48.48;96356.66;10463758;28;20314;-22
2021/12/07 06:24:19;;;;;;;10.40;1.80;;;;;;;19.23;49.30;96362.59;10463015;28;20032;-22
2021/12/07 06:29:19;;;;;;;3.75;1.60;;;;;;;19.04;49.72;96331.47;10457842;28;20108;-22
2021/12/07 06:34:20;;;;;;;23.40;4.70;;;;;;;18.97;44.63;96362.81;10462478;28;20032;-22
2021/12/07 06:39:22;;;;;;;9.57;4.13;;;;;;;19.01;47.10;96371.22;10462970;28;20582;-22
2021/12/07 06:44:22;;;;;;;13.75;3.53;;;;;;;19.16;48.34;96371.13;10457815;28;20033;-21
2021/12/07 06:49:23;;;;;;;8.80;3.00;;;;;;;19.15;48.25;96361.78;10470129;28;20036;-21
2021/12/07 06:54:23;;;;;;;6.77;2.77;;;;;;;19.24;49.02;96372.75;10460520;28;20279;-22
2021/12/07 06:59:23;;;;;;;4.77;2.27;;;;;;;19.00;49.38;96351.78;10458127;28;20033;-21
2021/12/07 07:04:24;;;;;;;3.73;1.80;;;;;;;19.26;49.69;96395.59;10460332;28;20116;-21
2021/12/07 07:09:24;;;;;;;4.17;2.07;;;;;;;19.24;49.88;96398.13;10456888;28;20276;-23
2021/12/07 07:14:25;;;;;;;6.40;1.80;;;;;;;19.23;50.13;96406.59;10459793;28;20520;-23
2021/12/07 07:19:25;;;;;;;2.70;1.48;;;;;;;19.13;50.34;96391.44;10456415;28;20325;-23
2021/12/07 07:24:25;;;;;;;4.53;1.60;;;;;;;19.17;50.45;96401.53;10465488;28;20029;-21
2021/12/07 07:29:26;;;;;;;3.37;1.70;;;;;;;19.24;50.41;96412.53;10459536;28;20049;-21
2021/12/07 07:34:27;;;;;;;4.13;1.73;;;;;;;19.10;50.50;96397.34;10469932;28;20021;-22
2021/12/07 07:39:27;;;;;;;2.33;1.60;;;;;;;19.23;50.74;96420.97;10458867;28;20029;-21
2021/12/07 07:44:28;;;;;;;3.65;1.95;;;;;;;19.23;50.59;96413.38;10456602;28;20086;-21
2021/12/07 07:49:28;;;;;;;3.15;1.60;;;;;;;19.23;50.61;96413.38;10464745;28;20098;-22
2021/12/07 07:54:29;;;;;;;2.60;1.53;;;;;;;19.22;50.90;96409.16;10459921;28;20029;-21
2021/12/07 07:59:30;;;;;;;3.70;1.57;;;;;;;19.22;50.80;96424.38;10459799;28;20287;-21
2021/12/07 08:04:30;;;;;;;2.95;1.50;;;;;;;19.21;50.91;96423.56;10456931;28;20032;-21
2021/12/07 08:09:30;;;;;;;2.20;1.33;;;;;;;19.18;50.96;96423.53;10456277;28;20025;-21
2021/12/07 08:14:32;;;;;;;2.20;1.30;;;;;;;19.20;50.98;96426.09;10459006;28;20083;-21
2021/12/07 08:19:33;;;;;;;4.15;1.58;;;;;;;19.21;50.80;96417.63;10457872;28;20386;-23
2021/12/07 08:24:33;;;;;;;1.35;1.13;;;;;;;19.20;50.90;96421.00;10456903;28;20047;-21
2021/12/07 08:29:33;;;;;;;3.30;1.50;;;;;;;19.23;50.89;96446.34;10457436;28;20569;-21
2021/12/07 08:34:34;;;;;;;1.63;1.20;;;;;;;19.21;50.80;96428.63;10457610;28;20087;-21
2021/12/07 08:39:35;;;;;;;1.98;1.13;;;;;;;19.22;51.00;96434.53;10456777;28;20116;-21
2021/12/07 08:44:35;;;;;;;1.80;1.20;;;;;;;19.23;51.02;96438.75;10456109;28;20071;-22
2021/12/07 08:49:35;;;;;;;2.35;1.13;;;;;;;19.24;51.00;96437.91;10463717;28;20063;-22
2021/12/07 08:59:39;;;;;;;2.17;1.43;;;;;;;19.22;51.06;96447.22;10456909;28;20059;-22
2021/12/07 08:59:56;;;;;;;1.80;1.00;;;;;;;19.09;51.00;96440.53;10467123;28;20948;-22
2021/12/07 09:04:57;;;;;;;1.53;0.90;;;;;;;19.23;50.86;96446.34;10463235;28;20082;-22
2021/12/07 09:09:57;;;;;;;2.27;1.30;;;;;;;19.22;51.00;96432.00;10461057;28;20830;-22
2021/12/07 09:14:57;;;;;;;1.65;1.13;;;;;;;19.17;51.00;96432.00;10459109;28;20021;-22
2021/12/07 09:19:58;;;;;;;2.22;1.50;;;;;;;19.04;50.88;96394.88;10459694;28;20029;-22
2021/12/07 09:24:59;;;;;;;1.17;0.93;;;;;;;19.18;50.69;96412.53;10466699;28;20036;-21
2021/12/07 09:29:59;;;;;;;1.63;1.00;;;;;;;19.23;51.18;96411.69;10460146;28;20150;-21
2021/12/07 09:35:02;;;;;;;1.57;1.10;;;;;;;19.26;50.85;96406.56;10462395;28;20416;-22
2021/12/07 09:40:06;;;;;;;3.70;1.30;;;;;;;19.25;51.11;96401.53;10463242;28;20033;-21
2021/12/07 09:45:08;;;;;;;1.60;1.00;;;;;;;19.21;51.30;96410.00;10466743;28;20392;-21
2021/12/07 09:50:12;;;;;;;1.38;0.90;;;;;;;19.22;51.30;96404.94;10465844;28;20025;-22
2021/12/07 09:55:14;;;;;;;1.20;1.00;;;;;;;19.24;51.16;96407.47;10469609;28;20040;-21
2021/12/07 10:00:19;;;;;;;2.50;1.13;;;;;;;19.24;51.13;96402.38;10466786;28;20421;-22
2021/12/07 10:05:21;;;;;;;1.98;1.05;;;;;;;19.23;51.36;96401.53;10463810;28;20037;-22
2021/12/07 10:10:23;;;;;;;1.15;0.95;;;;;;;19.13;51.32;96383.81;10462154;28;20045;-22
2021/12/07 10:15:24;;;;;;;1.02;0.80;;;;;;;19.24;51.29;96402.38;10469553;28;20035;-21
2021/12/07 10:20:39;;;;;;;1.55;0.93;;;;;;;19.26;51.27;96390.53;10465123;28;20032;-22
2021/12/07 10:25:41;;;;;;;1.10;0.77;;;;;;;19.24;51.23;96377.84;10462486;28;20507;-21
2021/12/07 10:30:41;;;;;;;1.83;1.02;;;;;;;19.11;51.41;96357.63;10464549;28;20043;-22
2021/12/07 10:35:42;;;;;;;1.38;0.90;;;;;;;19.09;51.32;96347.47;10463466;28;20044;-21
2021/12/07 10:41:00;;;;;;;1.00;0.90;;;;;;;19.24;51.11;96357.53;10466942;28;20412;-22
2021/12/07 10:46:00;;;;;;;1.30;0.93;;;;;;;19.14;51.12;96334.75;10461649;28;20381;-22
2021/12/07 10:51:10;;;;;;;1.73;1.23;;;;;;;19.18;51.13;96332.16;10461358;28;20029;-21
2021/12/07 10:56:32;;;;;;;1.15;0.90;;;;;;;19.21;51.14;96326.25;10458793;28;20025;-21
2021/12/07 11:01:36;;;;;;;1.30;0.68;;;;;;;19.26;51.09;96319.44;10460649;28;20508;-21
2021/12/07 11:07:12;;;;;;;2.30;1.33;;;;;;;19.26;51.17;96310.13;10459121;28;20025;-21
2021/12/07 11:12:20;;;;;;;1.20;0.80;;;;;;;19.28;50.94;96298.28;10464896;28;20037;-22
2021/12/07 11:17:24;;;;;;;1.55;0.80;;;;;;;19.21;50.97;96291.59;10460676;28;20064;-21
2021/12/07 11:22:31;;;;;;;1.48;0.85;;;;;;;19.30;51.05;96291.50;10454685;28;20555;-22
2021/12/07 11:32:56;;;;;;;1.50;1.00;;;;;;;19.34;51.03;96264.38;10461919;28;20111;-22
2021/12/07 11:37:58;;;;;;;1.15;0.90;;;;;;;19.28;50.94;96244.97;10467315;28;20026;-21
2021/12/07 11:42:59;;;;;;;3.03;0.80;;;;;;;19.25;49.58;96242.47;10463094;28;20450;-21
2021/12/07 11:48:03;;;;;;;2.28;1.05;;;;;;;19.23;51.38;96253.47;10470816;28;20071;-22
2021/12/07 11:53:14;;;;;;;6.65;1.30;;;;;;;19.29;51.81;96243.28;10454913;28;20108;-22
2021/12/07 11:58:16;;;;;;;3.33;1.20;;;;;;;19.26;52.08;96236.53;10455606;28;20036;-21
2021/12/07 12:03:19;;;;;;;8.15;1.40;;;;;;;19.27;52.32;96219.63;10457168;28;20112;-21
2021/12/07 12:08:21;;;;;;;14.10;3.38;;;;;;;19.26;51.81;96195.09;10439417;28;20025;-21
2021/12/07 12:14:00;;;;;;;10.88;2.83;;;;;;;19.30;51.93;96194.19;10459528;28;20479;-21
2021/12/07 12:19:18;;;;;;;6.00;2.30;;;;;;;19.35;51.52;96179.75;10421932;28;20045;-22
2021/12/07 12:24:45;;;;;;;3.72;1.77;;;;;;;19.36;51.54;96173.81;10456019;28;20137;-21
2021/12/07 12:29:49;;;;;;;5.03;2.30;;;;;;;19.27;51.50;96151.91;10456897;28;20107;-22
2021/12/07 12:34:50;;;;;;;3.20;2.03;;;;;;;19.24;51.50;96134.19;10457185;28;20083;-21
2021/12/07 12:39:56;;;;;;;3.33;2.30;;;;;;;19.20;51.55;96126.63;10465839;28;20463;-22
2021/12/07 12:45:08;;;;;;;14.20;2.67;;;;;;;19.21;52.07;96115.63;10466516;28;20614;-22
2021/12/07 12:50:19;;;;;;;5.43;2.25;;;;;;;19.14;52.40;96096.22;10468865;28;20045;-21
2021/12/07 12:55:34;;;;;;;5.28;2.20;;;;;;;19.28;52.68;96099.47;10465518;28;20037;-22
2021/12/07 13:01:08;;;;;;;5.50;2.10;;;;;;;19.23;53.02;96094.44;10466225;28;20270;-22
2021/12/07 13:06:15;;;;;;;6.97;2.72;;;;;;;19.26;52.40;96085.97;10464104;28;20029;-21
2021/12/07 13:11:40;;;;;;;5.00;2.15;;;;;;;19.23;52.33;96075.84;10463579;28;20033;-21
2021/12/07 13:16:52;;;;;;;4.25;1.88;;;;;;;19.23;52.35;96051.31;10464391;28;20429;-23
2021/12/07 13:21:53;;;;;;;4.53;2.10;;;;;;;19.28;51.97;96034.34;10466301;28;20029;-22
2021/12/07 13:26:53;;;;;;;2.55;1.70;;;;;;;19.26;52.14;96025.06;10464353;28;20037;-21
2021/12/07 13:31:57;;;;;;;5.68;2.17;;;;;;;19.23;52.09;96009.84;10465143;28;20032;-21
2021/12/07 13:37:05;;;;;;;3.40;1.85;;;;;;;19.22;52.18;95998.88;10465201;28;20071;-22
2021/12/07 13:42:08;;;;;;;3.78;1.85;;;;;;;19.19;52.17;95993.81;10463784;28;20059;-22
2021/12/07 13:47:15;;;;;;;2.80;1.60;;;;;;;19.22;52.06;95980.25;10469227;28;20526;-21
2021/12/07 13:52:23;;;;;;;2.22;1.35;;;;;;;19.17;52.16;95975.22;10449104;28;20032;-21
2021/12/07 13:57:26;;;;;;;2.90;1.80;;;;;;;19.25;52.26;95977.72;10459319;28;20025;-22
2021/12/07 14:02:30;;;;;;;5.10;1.92;;;;;;;19.23;52.81;95969.25;10462879;28;20037;-22
2021/12/07 14:07:32;;;;;;;8.88;3.20;;;;;;;19.24;53.74;95968.41;10463340;28;20024;-21
2021/12/07 14:12:32;;;;;;;12.77;3.45;;;;;;;19.30;53.82;95970.84;10460936;28;20044;-22
2021/12/07 14:17:38;;;;;;;7.55;2.90;;;;;;;19.25;54.23;95962.47;10462790;28;20040;-21
2021/12/07 14:22:45;;;;;;;8.60;2.45;;;;;;;19.18;54.10;95945.63;10458298;28;20029;-21
2021/12/07 14:27:47;;;;;;;9.70;2.55;;;;;;;19.23;54.18;95954.03;10467992;28;20028;-21
2021/12/07 14:32:47;;;;;;;8.85;2.70;;;;;;;19.21;54.13;95938.00;10461669;28;20040;-21
2021/12/07 14:37:48;;;;;;;7.32;2.30;;;;;;;19.31;54.04;95942.06;10461895;28;20029;-22
2021/12/07 14:42:48;;;;;;;8.55;2.33;;;;;;;19.42;53.75;95935.13;10470102;28;20125;-22
2021/12/07 14:47:49;;;;;;;6.53;2.00;;;;;;;19.48;53.60;95929.94;10467980;28;20512;-21
2021/12/07 14:52:50;;;;;;;8.00;3.05;;;;;;;19.48;53.36;95914.69;10467211;28;20401;-21
2021/12/07 14:57:50;;;;;;;4.82;2.08;;;;;;;19.38;53.43;95877.66;10461022;28;20025;-21
2021/12/07 15:02:50;;;;;;;6.03;2.33;;;;;;;19.51;53.25;95869.78;10464488;28;20029;-21
2021/12/07 15:07:52;;;;;;;5.00;2.08;;;;;;;19.62;53.16;95875.53;10458283;28;20361;-21
2021/12/07 15:12:53;;;;;;;4.47;2.30;;;;;;;19.46;53.21;95840.28;10460268;28;20039;-22
2021/12/07 15:17:54;;;;;;;5.88;1.83;;;;;;;19.43;53.48;95840.34;10459119;28;20031;-21
2021/12/07 15:22:54;;;;;;;5.82;1.90;;;;;;;19.36;53.45;95836.25;10455131;28;20028;-21
2021/12/07 15:27:55;;;;;;;4.40;1.50;;;;;;;19.47;53.42;95847.03;10466879;28;20116;-22
2021/12/07 15:32:55;;;;;;;4.60;1.70;;;;;;;19.49;53.41;95837.72;10458270;28;20044;-22
2021/12/07 15:37:55;;;;;;;3.67;2.10;;;;;;;19.46;53.33;95835.22;10464069;28;20654;-21
2021/12/07 15:42:56;;;;;;;3.05;1.60;;;;;;;19.44;53.66;95824.25;10465124;28;20086;-25
2021/12/07 15:47:56;;;;;;;2.83;1.37;;;;;;;19.43;53.39;95817.50;10469009;28;20122;-22
2021/12/07 15:53:03;;;;;;;7.35;1.50;;;;;;;19.40;53.48;95803.16;10459588;28;20465;-22
2021/12/07 15:58:05;;;;;;;;;;;;;;;19.46;53.52;95808.13;10457901;28;20041;-22
2021/12/07 16:03:16;;;;;;;3.83;2.00;;;;;;;19.44;53.34;95787.00;10456118;28;20376;-21
2021/12/07 16:08:19;;;;;;;3.13;1.38;;;;;;;19.42;53.59;95777.75;10457797;28;20029;-21
2021/12/07 16:13:32;;;;;;;3.60;1.90;;;;;;;19.35;53.55;95756.72;10455733;28;20087;-22
2021/12/07 16:18:37;;;;;;;4.50;1.70;;;;;;;19.41;53.35;95743.09;10456043;28;20040;-21
2021/12/07 16:23:41;;;;;;;3.50;1.48;;;;;;;19.42;53.41;95742.22;10455327;28;20028;-21
2021/12/07 16:28:54;;;;;;;3.42;1.70;;;;;;;19.41;53.30;95740.56;10457438;28;20033;-22
2021/12/07 16:33:56;;;;;;;2.55;1.60;;;;;;;19.31;53.52;95722.13;10459854;28;20027;-21
2021/12/07 16:38:59;;;;;;;4.60;1.65;;;;;;;19.38;53.59;95720.28;10459154;28;20074;-22
2021/12/07 16:44:02;;;;;;;3.05;1.50;;;;;;;19.38;52.39;95716.06;10451992;28;20037;-22
2021/12/07 16:49:04;;;;;;;5.07;1.70;;;;;;;19.43;53.28;95688.06;10463252;28;20037;-22
2021/12/07 16:54:06;;;;;;;2.97;1.58;;;;;;;19.40;53.39;95691.47;10454077;28;20033;-21
2021/12/07 16:59:07;;;;;;;2.50;1.58;;;;;;;19.31;53.21;95657.81;10457222;28;20048;-22
2021/12/07 17:04:09;;;;;;;2.95;1.50;;;;;;;19.27;53.08;95658.75;10465225;28;20045;-23
2021/12/07 17:09:09;;;;;;;4.68;2.00;;;;;;;19.38;52.82;95665.31;10470462;28;20033;-23
2021/12/07 17:14:10;;;;;;;3.40;2.00;;;;;;;19.37;52.94;95662.78;10463097;28;20436;-22
2021/12/07 17:19:10;;;;;;;1.90;1.35;;;;;;;19.41;52.72;95649.19;10471075;28;20485;-22
2021/12/07 17:24:11;;;;;;;3.03;1.93;;;;;;;19.39;52.63;95644.13;10484242;28;20044;-23
2021/12/07 17:29:11;;;;;;;3.58;2.08;;;;;;;19.38;52.53;95647.53;10463159;28;20225;-23
2021/12/07 17:34:12;;;;;;;3.33;1.20;;;;;;;19.38;52.52;95626.38;10473820;28;20032;-22
2021/12/07 17:39:15;;;;;;;4.85;1.70;;;;;;;19.38;52.62;95614.53;10482552;28;20025;-23
2021/12/07 17:44:16;;;;;;;3.05;1.20;;;;;;;19.17;52.46;95581.13;10472229;28;20109;-23
2021/12/07 17:49:17;;;;;;;4.10;1.50;;;;;;;19.42;52.72;95600.09;10465718;28;20543;-23
2021/12/07 17:54:18;;;;;;;2.97;1.33;;;;;;;19.30;52.62;95565.66;10465764;28;20033;-22
2021/12/07 17:59:19;;;;;;;4.13;1.70;;;;;;;19.45;52.62;95579.69;10467922;28;20295;-22
2021/12/07 18:04:19;;;;;;;2.63;1.50;;;;;;;19.33;53.16;95569.81;10460475;28;20485;-22
2021/12/07 18:09:20;;;;;;;6.23;3.23;;;;;;;19.42;53.60;95569.63;10471720;28;20090;-22
2021/12/07 18:14:20;;;;;;;6.97;2.00;;;;;;;19.41;53.53;95552.72;10476509;28;20711;-23
2021/12/07 18:19:21;;;;;;;3.38;1.88;;;;;;;19.37;53.22;95543.50;10469788;28;20437;-22
2021/12/07 18:24:21;;;;;;;7.25;2.17;;;;;;;19.41;53.10;95553.56;10459752;28;20119;-22
2021/12/07 18:29:22;;;;;;;5.90;1.67;;;;;;;19.16;53.35;95513.50;10467580;28;20044;-23
2021/12/07 18:34:22;;;;;;;4.25;1.55;;;;;;;19.34;53.38;95530.88;10461184;28;20122;-23
2021/12/07 18:39:23;;;;;;;4.47;1.75;;;;;;;19.34;53.12;95520.75;10458773;28;20040;-22
2021/12/07 18:44:23;;;;;;;5.03;1.80;;;;;;;19.33;53.08;95514.81;10459429;28;20041;-22
2021/12/07 18:49:24;;;;;;;4.72;1.60;;;;;;;19.22;52.95;95480.41;10465663;28;20120;-22
2021/12/07 18:54:24;;;;;;;4.43;2.00;;;;;;;19.31;52.75;95498.81;10470926;28;20037;-23
2021/12/07 18:59:25;;;;;;;4.32;1.85;;;;;;;19.24;53.16;95456.66;10471134;28;20709;-23
2021/12/07 19:04:25;;;;;;;4.33;1.70;;;;;;;19.16;52.74;95455.16;10464873;28;20048;-23
2021/12/07 19:09:26;;;;;;;5.27;1.83;;;;;;;19.30;52.98;95463.28;10461151;28;20326;-23
2021/12/07 19:14:26;;;;;;;3.95;2.30;;;;;;;19.19;52.91;95429.72;10466184;28;20290;-23
2021/12/07 19:19:27;;;;;;;4.23;2.27;;;;;;;19.12;53.04;95382.50;10470595;28;20063;-23
2021/12/07 19:24:27;;;;;;;3.57;2.20;;;;;;;19.26;52.84;95381.34;10472606;28;20029;-23
2021/12/07 19:29:31;;;;;;;6.78;3.15;;;;;;;19.18;53.05;95367.97;10456316;28;20043;-22
2021/12/07 19:34:32;;;;;;;7.90;3.78;;;;;;;19.25;53.42;95391.53;10447027;28;20538;-23
2021/12/07 19:39:33;;;;;;;8.75;4.53;;;;;;;19.27;53.47;95387.25;10460314;28;20098;-22
2021/12/07 19:44:35;;;;;;;8.35;5.35;;;;;;;19.25;53.74;95364.44;10464571;28;20220;-23
2021/12/07 19:49:36;;;;;;;10.20;5.30;;;;;;;19.28;53.71;95359.31;10467344;28;20381;-23
2021/12/07 19:54:36;;;;;;;6.78;4.18;;;;;;;19.30;53.57;95349.97;10452478;28;20040;-23
2021/12/07 19:59:42;;;;;;;5.50;3.90;;;;;;;19.31;53.56;95333.00;10461230;28;20488;-22
2021/12/07 20:04:43;;;;;;;6.77;3.77;;;;;;;19.26;53.40;95330.59;10455448;28;20032;-22
2021/12/07 20:09:45;;;;;;;5.80;4.07;;;;;;;19.29;53.33;95327.16;10462341;28;20036;-23
2021/12/07 20:14:47;;;;;;;6.05;3.88;;;;;;;19.21;53.64;95312.13;10469488;28;20023;-23
2021/12/07 20:19:48;;;;;;;10.02;4.88;;;;;;;19.33;53.63;95308.44;10468003;28;20039;-23
2021/12/07 20:24:50;;;;;;;11.90;4.22;;;;;;;19.33;53.96;95283.06;10469889;28;20033;-22
2021/12/07 20:29:50;;;;;;;8.48;4.32;;;;;;;19.29;53.86;95263.72;10466523;28;20033;-23
2021/12/07 20:34:51;;;;;;;14.77;4.90;;;;;;;19.34;54.05;95267.78;10445574;28;20063;-23
2021/12/07 20:39:52;;;;;;;8.33;4.60;;;;;;;19.31;54.32;95267.88;10464166;28;20037;-23
2021/12/07 20:44:54;;;;;;;12.48;4.43;;;;;;;19.26;54.70;95254.47;10486360;28;20038;-22
2021/12/07 20:49:54;;;;;;;12.82;4.75;;;;;;;19.27;55.07;95251.06;10466622;28;20476;-24
2021/12/07 20:54:55;;;;;;;10.27;4.68;;;;;;;19.28;55.25;95256.97;10458097;28;20032;-22
2021/12/07 20:59:56;;;;;;;12.18;4.55;;;;;;;19.28;55.09;95267.13;10468103;28;20111;-22
2021/12/07 21:04:58;;;;;;;13.15;4.18;;;;;;;19.35;54.96;95268.63;10460900;28;20025;-23
2021/12/07 21:09:58;;;;;;;9.38;4.07;;;;;;;19.40;54.58;95272.72;10480102;28;20484;-22
2021/12/07 21:14:58;;;;;;;9.77;3.63;;;;;;;19.42;54.09;95260.00;10468547;28;20020;-22
2021/12/07 21:20:00;;;;;;;12.23;4.28;;;;;;;19.37;54.13;95237.28;10467449;28;20032;-22
2021/12/07 21:25:01;;;;;;;8.48;3.63;;;;;;;19.43;53.96;95246.44;10466816;28;20107;-22
2021/12/07 21:30:06;;;;;;;9.13;4.60;;;;;;;19.41;54.03;95223.63;10470197;28;20039;-22
2021/12/07 21:35:09;;;;;;;9.93;3.45;;;;;;;19.42;53.83;95215.13;10457889;28;20036;-23
2021/12/07 21:40:17;;;;;;;11.98;3.70;;;;;;;19.41;53.90;95193.16;10465836;28;20041;-23
2021/12/07 21:45:19;;;;;;;12.32;3.75;;;;;;;19.36;54.07;95189.09;10469469;28;20036;-22
2021/12/07 21:50:20;;;;;;;10.73;4.05;;;;;;;19.34;53.74;95184.06;10465526;28;20033;-23
2021/12/07 21:55:20;;;;;;;7.45;2.90;;;;;;;19.38;54.08;95161.97;10469228;28;20029;-22
2021/12/07 22:00:25;;;;;;;6.45;2.90;;;;;;;19.37;53.85;95165.38;10466376;28;20037;-22
2021/12/07 22:05:26;;;;;;;8.68;2.90;;;;;;;19.33;53.95;95154.47;10462730;28;20040;-23
2021/12/07 22:10:27;;;;;;;7.30;3.03;;;;;;;19.31;53.86;95133.41;10459878;28;20032;-23
2021/12/07 22:15:27;;;;;;;6.20;2.75;;;;;;;19.32;53.82;95154.50;10460129;28;20037;-23
2021/12/07 22:20:28;;;;;;;5.10;2.70;;;;;;;19.24;54.04;95143.78;10472457;28;20036;-22
2021/12/07 22:25:28;;;;;;;4.37;2.83;;;;;;;19.33;53.78;95153.66;10473995;28;20736;-23
2021/12/07 22:30:28;;;;;;;7.28;2.83;;;;;;;19.31;53.77;95153.69;10459829;28;20450;-23
2021/12/07 22:35:29;;;;;;;8.00;2.65;;;;;;;19.30;53.95;95136.81;10473084;28;20035;-23
2021/12/07 22:40:30;;;;;;;10.73;2.97;;;;;;;19.22;53.71;95113.38;10461874;28;20048;-23
2021/12/07 22:45:30;;;;;;;5.05;2.42;;;;;;;19.31;53.64;95114.78;10467393;28;20101;-23
2021/12/07 22:50:33;;;;;;;8.80;2.65;;;;;;;19.33;53.65;95113.06;10463168;28;20090;-22
2021/12/07 22:55:34;;;;;;;7.18;3.10;;;;;;;19.32;53.59;95106.31;10461123;28;20021;-22
2021/12/07 23:00:37;;;;;;;5.90;2.00;;;;;;;19.34;53.56;95105.38;10465696;28;20043;-23
2021/12/07 23:05:40;;;;;;;7.18;2.83;;;;;;;19.35;53.92;95107.03;10460022;28;20025;-22
2021/12/07 23:10:41;;;;;;;6.85;2.13;;;;;;;19.35;53.80;95101.16;10455916;28;20116;-23
2021/12/07 23:15:45;;;;;;;10.93;3.08;;;;;;;19.28;53.53;95079.38;10461254;28;20520;-22
2021/12/07 23:20:49;;;;;;;5.13;2.35;;;;;;;19.33;53.94;95080.06;10457542;28;20043;-23
2021/12/07 23:25:51;;;;;;;5.80;1.95;;;;;;;19.30;54.00;95083.53;10466612;28;20033;-23
2021/12/07 23:31:01;;;;;;;7.60;2.00;;;;;;;19.32;53.83;95070.78;10464818;28;20037;-23
2021/12/07 23:36:06;;;;;;;6.43;2.30;;;;;;;19.32;53.81;95060.63;10462967;28;20040;-23
2021/12/07 23:41:07;;;;;;;6.20;1.90;;;;;;;19.36;53.90;95049.53;10468631;28;20029;-23
2021/12/07 23:46:09;;;;;;;4.05;2.20;;;;;;;19.36;53.68;95032.59;10463221;28;20104;-22
2021/12/07 23:51:09;;;;;;;4.53;2.78;;;;;;;19.39;53.59;95031.66;10461801;28;20040;-23
2021/12/07 23:56:10;;;;;;;6.40;2.55;;;;;;;19.38;53.66;95014.78;10463894;28;20032;-23
